NZAA/AKL METAR and TAF weather

Enter ICAO airport designator
Station Type Date Time Source
NZAA METAR 2019/06/17 14:30 UTC NOAA

NZAA 171430Z AUTO 24010KT 9999 -RA SCT034/// BKN060/// BKN075/// 11/09 Q1018 TEMPO 6000 SHRA


Station Type Date Time Source
NZAA Decoded METAR 2019/06/17 14:30 UTC NOAA

Auckland Airport, New Zealand (NZAA) 37-01S 174-48E 6M
Jun 17, 2019 - 10:30 AM EDT / 2019.06.17 1430 UTC
Wind: from the WSW (240 degrees) at 12 MPH (10 KT):0
Visibility: greater than 7 mile(s):0
Sky conditions: mostly cloudy
Weather: light rain
Temperature: 51 F (11 C)
Dew Point: 48 F (9 C)
Relative Humidity: 87%
Pressure (altimeter): 30.06 in. Hg (1018 hPa)
ob: NZAA 171430Z AUTO 24010KT 9999 -RA SCT034/// BKN060/// BKN075/// 11/09 Q1018 TEMPO 6000 SHRA
cycle: 14

Station Type Date Time Source
NZAA TAF 2019/06/17 12:03 UTC NOAA

TAF TAF NZAA 171101Z 1712/1812 26015KT 9999 -SHRA FEW035 SCT050
FM171600 21005KT 9999 FEW040

Example: see airport list